This demonstration page uses our WeatherBlox Daily Observations layout. Learn more.

38.89511, -77.03637

Hourly Observations for March 6, 2015

Temp ( °F °C ) Dew Point ( °F °C ) Humidity (%) Winds ( mph kmh ) Pressure ( in mb ) Visibility ( mi km ) Precip ( " mm )
12:52 am 00:52 Clear 21 -6 7 -14 54 54 NNW 13 20 30.48 1032 10 16.09344 0 0
1:52 am 01:52 Clear 19 -7 5 -15 53 53 NNW 13 20 30.5 1033 10 16.09344 0 0
2:52 am 02:52 Clear 19 -7 3 -16 49 49 NNW 14 22 30.5 1033 10 16.09344 0 0
3:52 am 03:52 Clear 18 -8 1 -17 49 49 NNW 15 24 30.5 1033 10 16.09344 0 0
4:52 am 04:52 Clear 18 -8 1 -17 49 49 NNW 12 19 30.53 1034 10 16.09344 0 0
5:52 am 05:52 Clear 16 -9 1 -17 53 53 NNW 13 20 30.59 1036 10 16.09344 0 0
6:52 am 06:52 Sunny 16 -9 1 -17 53 53 NNW 9 15 30.59 1036 10 16.09344 0 0
7:52 am 07:52 Sunny 18 -8 1 -17 49 49 N 12 19 30.62 1037 10 16.09344 0 0
8:52 am 08:52 Sunny 19 -7 1 -17 45 45 N 12 19 30.62 1037 10 16.09344 0 0
9:52 am 09:52 Sunny 21 -6 1 -17 42 42 NNE 7 11 30.62 1037 10 16.09344 0 0
10:52 am 10:52 Sunny 23 -5 1 -17 39 39 NNE 5 7 30.62 1037 10 16.09344 0 0
11:52 am 11:52 Sunny 25 -4 5 -15 42 42 Calm 30.59 1036 10 16.09344 0 0
12:52 pm 12:52 Sunny 27 -3 7 -14 43 43 N 3 6 30.56 1035 10 16.09344 0 0
1:52 pm 13:52 Sunny 28 -2 7 -14 40 40 WNW 5 7 30.53 1034 10 16.09344 0 0
2:52 pm 14:52 Mostly Sunny 28 -2 7 -14 40 40 N 3 6 30.5 1033 10 16.09344 0 0
3:52 pm 15:52 Mostly Sunny 28 -2 7 -14 40 40 ESE 5 7 30.5 1033 10 16.09344 0 0
4:52 pm 16:52 Mostly Sunny 28 -2 7 -14 40 40 SSW 7 11 30.48 1032 10 16.09344 0 0
5:52 pm 17:52 Partly Cloudy 28 -2 9 -13 43 43 S 5 7 30.48 1032 10 16.09344 0 0
6:52 pm 18:52 Mostly Cloudy 27 -3 9 -13 46 46 SSW 5 7 30.45 1031 10 16.09344 0 0
7:52 pm 19:52 Partly Cloudy 27 -3 9 -13 46 46 S 7 11 30.45 1031 10 16.09344 0 0
8:52 pm 20:52 Mostly Clear 25 -4 10 -12 54 54 SW 5 7 30.45 1031 10 16.09344 0 0
9:52 pm 21:52 Clear 25 -4 10 -12 54 54 S 3 6 30.45 1031 10 16.09344 0 0
10:52 pm 22:52 Clear 25 -4 12 -11 59 59 SSW 3 6 30.45 1031 10 16.09344 0 0
11:52 pm 23:52 Clear 23 -5 12 -11 63 63 SW 5 7 30.42 1030 10 16.09344 0 0

Powered by AerisWeather